Saint Boniface, Pennsylvania
Current Conditions -  °F | °C
As of 3:35 PM on Monday 24 Nov 2014 (Local Time) from KIDI Reporting Station
Few Clouds Few Clouds  
Wind Chill: 66°   Ceiling: Unl
Heat Index: 66°   Visibility: 10mi
Dew Point: 43°   Wind: 23mph
Humidity: 43%   Direction: 250°WSW
Pressure: 29.52"   Gusts: 38mph
Location:  40.67°N, 78.68°W
Report Text: KIDI 242035Z AUTO 25020G33KT 10SM FEW070 19/06 A2952 RMK A01
Loading
Personal Weather Stations






























Interactive Weather Map New forecast layout! Learn more

10-Day Weather Forecast

Advertisements
Track Severe Weather on mobile